This is the latest recevied weather packets stored in our database for station/object K4AGR-13. If no packets are shown the sender has not sent any weather packets the latest 10 day(s).
| Time | Temp. | Humidity | Pressure | Rain* | Wind** | Luminosity | Snow |
|---|---|---|---|---|---|---|---|
| 1777684584 | 13.89° C | 93% | 1012.8 hPa | 10.67 mm | - | 0 W/m² | - |
| 1777684280 | 13.89° C | 93% | 1013 hPa | 13.72 mm | - | 0 W/m² | - |
| 1777683978 | 15° C | 92% | 1013 hPa | 16.76 mm | - | 0 W/m² | - |
| 1777683674 | 15° C | 93% | 1012.7 hPa | 13.21 mm | - | 0 W/m² | - |
| 1777683372 | 15° C | 92% | 1012.9 hPa | 8.89 mm | - | 0 W/m² | - |
| 1777683070 | 15° C | 91% | 1012.6 hPa | 6.6 mm | - | 0 W/m² | - |
| 1777682765 | 15° C | 89% | 1012.6 hPa | 1.78 mm | - | 0 W/m² | - |
| 1777682462 | 15° C | 86% | 1012.5 hPa | 0 mm | - | 0 W/m² | - |
| 1777682161 | 15° C | 84% | 1012.1 hPa | 0 mm | - | 0 W/m² | - |
| 1777681857 | 15° C | 86% | 1011.8 hPa | 0 mm | - | 0 W/m² | - |
| 1777681553 | 15° C | 87% | 1011.9 hPa | 0 mm | - | 0 W/m² | - |
| 1777681250 | 15° C | 85% | 1012 hPa | 0 mm | - | 0 W/m² | - |
| 1777680948 | 15.56° C | 83% | 1011.8 hPa | 1.27 mm | - | 1 W/m² | - |
| 1777680645 | 15.56° C | 90% | 1011.6 hPa | 8.89 mm | - | 1 W/m² | - |
| 1777680343 | 16.11° C | 93% | 1011.9 hPa | 8.89 mm | - | 2 W/m² | - |
| 1777680040 | 16.11° C | 93% | 1011.8 hPa | 3.05 mm | - | 2 W/m² | - |
| 1777679736 | 16.11° C | 93% | 1011.8 hPa | 1.78 mm | - | 2 W/m² | - |
| 1777679432 | 16.11° C | 93% | 1011.8 hPa | 0 mm | - | 4 W/m² | - |
| 1777679127 | 16.11° C | 92% | 1011.7 hPa | 0 mm | - | 7 W/m² | - |
| 1777678826 | 16.11° C | 92% | 1011.6 hPa | 1.78 mm | - | 10 W/m² | - |
| 1777678524 | 16.11° C | 93% | 1011.3 hPa | 3.05 mm | - | 22 W/m² | - |
| 1777678220 | 16.11° C | 92% | 1011.7 hPa | 1.27 mm | - | 18 W/m² | - |
| 1777677916 | 16.67° C | 92% | 1011.6 hPa | 3.05 mm | - | 23 W/m² | - |
| 1777677614 | 16.67° C | 92% | 1012.2 hPa | 3.05 mm | - | 9 W/m² | - |
| 1777677312 | 16.67° C | 92% | 1012.5 hPa | 1.78 mm | - | 7 W/m² | - |
* Rain latest hour (hover to see other rain measurements)
** Current wind speed in m/s (hover to see current wind gust speed)